Time;durP1;ratioP1;P1;durP2;ratioP2;P2;SDS_P1;SDS_P2;PMS_P1;PMS_P2;Temp;Humidity;BMP_temperature;BMP_pressure;BME280_temperature;BME280_humidity;BME280_pressure;Samples;Min_cycle;Max_cycle;Signal;HPM_P1;HPM_P2
2023/01/15 00:00:16;;;;;;;4.40;1.20;;;;;;;;;;5064731;28;20440;-79
2023/01/15 00:02:43;;;;;;;2.07;1.10;;;;;;;;;;5063424;28;20487;-78
2023/01/15 00:05:10;;;;;;;3.83;1.27;;;;;;;;;;5065248;28;20470;-79
2023/01/15 00:07:37;;;;;;;2.63;1.70;;;;;;;;;;5070889;28;20458;-78
2023/01/15 00:10:03;;;;;;;5.70;1.93;;;;;;;;;;5068679;28;20466;-80
2023/01/15 00:12:30;;;;;;;2.90;1.40;;;;;;;;;;5069448;28;20834;-78
2023/01/15 00:14:57;;;;;;;5.63;1.53;;;;;;;;;;5065956;28;20479;-77
2023/01/15 00:17:23;;;;;;;7.03;1.90;;;;;;;;;;5067347;28;20516;-80
2023/01/15 00:19:50;;;;;;;9.03;2.30;;;;;;;;;;5070071;28;20470;-80
2023/01/15 00:22:18;;;;;;;9.20;1.90;;;;;;;;;;5069096;28;21050;-82
2023/01/15 00:27:42;;;;;;;3.00;1.80;;;;;;;;;;5067213;28;20441;-80
2023/01/15 00:30:12;;;;;;;12.00;2.50;;;;;;;;;;5068419;28;20461;-79
2023/01/15 00:32:39;;;;;;;6.00;2.70;;;;;;;;;;5067021;28;20478;-79
2023/01/15 00:35:05;;;;;;;7.27;2.60;;;;;;;;;;5069606;28;20482;-78
2023/01/15 00:37:33;;;;;;;9.47;2.60;;;;;;;;;;5068757;28;20462;-78
2023/01/15 00:40:00;;;;;;;6.13;2.10;;;;;;;;;;5066029;28;20470;-78
2023/01/15 00:42:26;;;;;;;11.90;2.90;;;;;;;;;;5066383;28;20487;-79
2023/01/15 00:44:53;;;;;;;9.90;2.67;;;;;;;;;;5064529;28;20479;-82
2023/01/15 00:47:19;;;;;;;7.90;2.57;;;;;;;;;;5067625;28;20466;-80
2023/01/15 00:49:45;;;;;;;7.80;2.00;;;;;;;;;;5068166;28;20999;-79
2023/01/15 00:52:12;;;;;;;14.53;2.20;;;;;;;;;;5067079;28;20443;-80
2023/01/15 00:54:40;;;;;;;10.80;1.67;;;;;;;;;;5069271;28;20471;-79
2023/01/15 00:57:07;;;;;;;7.13;2.23;;;;;;;;;;5069520;28;20447;-79
2023/01/15 00:59:34;;;;;;;5.37;1.73;;;;;;;;;;5069581;28;20893;-79
2023/01/15 01:02:00;;;;;;;10.63;2.33;;;;;;;;;;5066610;28;20466;-81
2023/01/15 01:04:26;;;;;;;5.07;1.83;;;;;;;;;;5069488;28;20562;-79
2023/01/15 01:06:53;;;;;;;5.10;2.00;;;;;;;;;;5069611;28;20462;-79
2023/01/15 01:09:19;;;;;;;3.93;2.37;;;;;;;;;;5070043;28;20806;-80
2023/01/15 01:11:48;;;;;;;4.43;1.90;;;;;;;;;;5068876;28;20440;-80
2023/01/15 01:14:16;;;;;;;6.73;1.70;;;;;;;;;;5068633;28;20470;-80
2023/01/15 01:16:43;;;;;;;4.80;1.80;;;;;;;;;;5069615;28;21059;-80
2023/01/15 01:19:10;;;;;;;7.33;1.80;;;;;;;;;;5067278;28;20464;-80
2023/01/15 01:21:37;;;;;;;6.53;1.97;;;;;;;;;;5062206;28;20990;-80
2023/01/15 01:24:04;;;;;;;6.53;2.40;;;;;;;;;;5061100;28;20483;-79
2023/01/15 01:26:30;;;;;;;5.07;1.80;;;;;;;;;;5062564;28;20516;-79
2023/01/15 01:28:58;;;;;;;4.73;2.00;;;;;;;;;;5061342;28;20475;-80
2023/01/15 01:31:25;;;;;;;5.73;1.73;;;;;;;;;;5060469;28;20927;-79
2023/01/15 01:33:52;;;;;;;5.40;2.03;;;;;;;;;;5061849;28;20558;-80
2023/01/15 01:36:19;;;;;;;5.90;2.03;;;;;;;;;;5059693;28;20479;-80
2023/01/15 01:38:48;;;;;;;3.87;1.70;;;;;;;;;;5062210;28;20848;-79
2023/01/15 01:41:14;;;;;;;5.30;2.03;;;;;;;;;;5059640;28;20516;-80
2023/01/15 01:43:52;;;;;;;5.40;1.57;;;;;;;;;;5060575;28;20988;-80
2023/01/15 01:46:20;;;;;;;5.70;1.77;;;;;;;;;;5058566;28;20530;-78
2023/01/15 01:48:47;;;;;;;3.63;1.70;;;;;;;;;;5061431;28;20479;-79
2023/01/15 01:51:13;;;;;;;10.47;1.80;;;;;;;;;;5062511;28;20458;-79
2023/01/15 01:53:40;;;;;;;6.43;2.73;;;;;;;;;;5062336;28;20992;-79
2023/01/15 01:56:08;;;;;;;6.37;2.13;;;;;;;;;;5062118;28;20483;-79
2023/01/15 01:58:35;;;;;;;8.90;3.10;;;;;;;;;;5062980;28;21019;-78
2023/01/15 02:01:01;;;;;;;15.57;4.40;;;;;;;;;;5061624;28;20448;-80
2023/01/15 02:03:31;;;;;;;4.67;2.17;;;;;;;;;;5058502;28;20472;-80
2023/01/15 02:05:59;;;;;;;6.60;2.27;;;;;;;;;;5061522;28;20448;-80
2023/01/15 02:08:26;;;;;;;9.83;2.30;;;;;;;;;;5059908;28;20482;-79
2023/01/15 02:10:53;;;;;;;6.07;1.80;;;;;;;;;;5060591;28;20456;-79
2023/01/15 02:13:23;;;;;;;4.13;1.67;;;;;;;;;;5060365;28;20944;-79
2023/01/15 02:15:53;;;;;;;10.90;1.90;;;;;;;;;;5061112;28;20850;-79
2023/01/15 02:18:24;;;;;;;10.10;1.90;;;;;;;;;;5061380;28;20467;-80
2023/01/15 02:20:54;;;;;;;11.73;2.20;;;;;;;;;;5060169;28;20470;-80
2023/01/15 02:23:26;;;;;;;6.43;2.20;;;;;;;;;;5062011;28;21000;-79
2023/01/15 02:26:02;;;;;;;11.10;2.27;;;;;;;;;;5059286;28;20976;-80
2023/01/15 02:28:30;;;;;;;7.60;2.13;;;;;;;;;;5060419;28;20463;-79
2023/01/15 02:30:58;;;;;;;7.70;2.40;;;;;;;;;;5061848;28;20451;-80
2023/01/15 02:33:27;;;;;;;7.70;1.80;;;;;;;;;;5060935;28;20470;-80
2023/01/15 02:35:56;;;;;;;9.77;2.10;;;;;;;;;;5062026;28;20483;-80
2023/01/15 02:38:24;;;;;;;14.47;2.60;;;;;;;;;;5061566;28;21103;-80
2023/01/15 02:40:52;;;;;;;11.87;2.60;;;;;;;;;;5060530;28;20467;-79
2023/01/15 02:43:19;;;;;;;11.43;2.47;;;;;;;;;;5059456;28;20487;-78
2023/01/15 02:45:50;;;;;;;7.77;3.20;;;;;;;;;;5061819;28;20455;-81
2023/01/15 02:48:18;;;;;;;11.90;2.60;;;;;;;;;;5060804;28;20517;-79
2023/01/15 02:50:47;;;;;;;10.40;1.73;;;;;;;;;;5059094;28;20459;-79
2023/01/15 02:53:18;;;;;;;9.30;2.23;;;;;;;;;;5058794;28;20470;-79
2023/01/15 02:55:46;;;;;;;8.17;1.80;;;;;;;;;;5060984;28;20486;-79
2023/01/15 02:58:17;;;;;;;2.60;1.50;;;;;;;;;;5061060;28;20483;-79
2023/01/15 03:00:45;;;;;;;6.83;2.13;;;;;;;;;;5060164;28;20462;-78
2023/01/15 03:03:16;;;;;;;4.77;1.83;;;;;;;;;;5057759;28;20471;-80
2023/01/15 03:05:43;;;;;;;6.70;2.00;;;;;;;;;;5059928;28;20825;-79
2023/01/15 03:08:11;;;;;;;5.07;1.90;;;;;;;;;;5059046;28;20471;-80
2023/01/15 03:10:41;;;;;;;6.93;1.80;;;;;;;;;;5059068;28;20465;-80
2023/01/15 03:13:11;;;;;;;5.70;2.00;;;;;;;;;;5059142;28;20483;-80
2023/01/15 03:18:31;;;;;;;5.73;2.10;;;;;;;;;;5058907;28;20473;-78
2023/01/15 03:21:00;;;;;;;5.60;1.93;;;;;;;;;;5059311;28;20874;-78
2023/01/15 03:23:29;;;;;;;6.30;2.47;;;;;;;;;;5059044;28;20521;-79
2023/01/15 03:25:56;;;;;;;6.53;3.33;;;;;;;;;;5058882;28;20513;-79
2023/01/15 03:28:24;;;;;;;9.77;2.57;;;;;;;;;;5056031;28;20474;-80
2023/01/15 03:30:51;;;;;;;5.30;1.70;;;;;;;;;;5059221;28;20994;-79
2023/01/15 03:33:17;;;;;;;10.87;2.50;;;;;;;;;;5056258;28;20475;-79
2023/01/15 03:35:52;;;;;;;10.17;2.20;;;;;;;;;;5058281;28;20490;-79
2023/01/15 03:38:20;;;;;;;9.23;2.17;;;;;;;;;;5060572;28;20523;-79
2023/01/15 03:40:50;;;;;;;9.50;2.30;;;;;;;;;;5063237;28;20839;-79
2023/01/15 03:46:04;;;;;;;8.20;2.30;;;;;;;;;;5062238;28;20477;-79
2023/01/15 03:48:34;;;;;;;7.40;1.73;;;;;;;;;;5061998;28;20566;-79
2023/01/15 03:51:04;;;;;;;11.80;2.87;;;;;;;;;;5062402;28;20463;-79
2023/01/15 03:53:31;;;;;;;11.33;1.87;;;;;;;;;;5064887;28;20550;-80
2023/01/15 03:56:01;;;;;;;8.80;2.23;;;;;;;;;;5062743;28;20486;-78
2023/01/15 03:58:29;;;;;;;11.63;2.30;;;;;;;;;;5061470;28;20472;-80
2023/01/15 04:01:00;;;;;;;5.57;1.90;;;;;;;;;;5061587;28;20474;-80
2023/01/15 04:03:27;;;;;;;9.97;1.90;;;;;;;;;;5063336;28;20483;-80
2023/01/15 04:05:55;;;;;;;5.47;2.30;;;;;;;;;;5061904;28;20447;-80
2023/01/15 04:08:24;;;;;;;10.90;2.20;;;;;;;;;;5063361;28;20474;-79
2023/01/15 04:10:52;;;;;;;25.00;2.70;;;;;;;;;;5062369;28;20799;-79
2023/01/15 04:13:18;;;;;;;6.80;1.93;;;;;;;;;;5062524;28;20482;-80
2023/01/15 04:15:45;;;;;;;7.13;2.30;;;;;;;;;;5062440;28;20493;-80
2023/01/15 04:18:11;;;;;;;19.03;2.57;;;;;;;;;;5062385;28;20559;-80
2023/01/15 04:20:38;;;;;;;8.43;2.53;;;;;;;;;;5062756;28;20456;-80
2023/01/15 04:23:04;;;;;;;3.43;1.70;;;;;;;;;;5062189;28;20471;-79
2023/01/15 04:25:32;;;;;;;17.53;3.93;;;;;;;;;;5061149;28;20517;-80
2023/01/15 04:27:59;;;;;;;11.80;2.40;;;;;;;;;;5060926;28;20474;-80
2023/01/15 04:30:25;;;;;;;14.87;3.33;;;;;;;;;;5062014;28;20930;-80
2023/01/15 04:32:52;;;;;;;5.27;1.77;;;;;;;;;;5061696;28;20485;-80
2023/01/15 04:35:21;;;;;;;8.80;2.60;;;;;;;;;;5060621;28;20450;-80
2023/01/15 04:37:47;;;;;;;9.87;2.23;;;;;;;;;;5062968;28;20482;-79
2023/01/15 04:44:05;;;;;;;7.90;2.23;;;;;;;;;;5063245;28;20953;-80
2023/01/15 04:45:47;;;;;;;11.93;2.57;;;;;;;;;;5062958;28;20453;-79
2023/01/15 04:48:14;;;;;;;6.20;2.33;;;;;;;;;;5061574;28;20470;-80
2023/01/15 04:50:40;;;;;;;15.23;4.10;;;;;;;;;;5063168;28;20454;-80
2023/01/15 04:53:06;;;;;;;9.33;4.60;;;;;;;;;;5063348;28;20475;-80
2023/01/15 04:55:33;;;;;;;9.23;2.20;;;;;;;;;;5064213;28;20824;-80
2023/01/15 04:58:00;;;;;;;11.97;2.23;;;;;;;;;;5061979;28;21000;-79
2023/01/15 05:00:27;;;;;;;4.90;1.70;;;;;;;;;;5062171;28;20447;-80
2023/01/15 05:02:54;;;;;;;7.70;2.63;;;;;;;;;;5059104;28;20466;-79
2023/01/15 05:05:20;;;;;;;13.23;2.77;;;;;;;;;;5062880;28;20958;-79
2023/01/15 05:07:47;;;;;;;8.60;3.30;;;;;;;;;;5063246;28;20450;-79
2023/01/15 05:10:13;;;;;;;11.80;1.83;;;;;;;;;;5063087;28;20452;-80
2023/01/15 05:12:40;;;;;;;25.50;3.67;;;;;;;;;;5061983;28;20479;-80
2023/01/15 05:15:06;;;;;;;5.53;1.90;;;;;;;;;;5061634;28;20452;-79
2023/01/15 05:17:34;;;;;;;12.47;2.73;;;;;;;;;;5059384;28;20486;-80
2023/01/15 05:20:01;;;;;;;10.93;2.60;;;;;;;;;;5062554;28;20466;-79
2023/01/15 05:22:27;;;;;;;11.13;2.40;;;;;;;;;;5060722;28;20848;-80
2023/01/15 05:24:54;;;;;;;10.00;2.57;;;;;;;;;;5061977;28;21672;-79
2023/01/15 05:27:20;;;;;;;3.90;1.70;;;;;;;;;;5061491;28;20456;-79
2023/01/15 05:29:47;;;;;;;8.20;2.80;;;;;;;;;;5062080;28;20468;-79
2023/01/15 05:32:14;;;;;;;13.87;4.33;;;;;;;;;;5061497;28;20471;-80
2023/01/15 05:34:42;;;;;;;12.10;2.97;;;;;;;;;;5059395;28;20562;-78
2023/01/15 05:37:08;;;;;;;11.47;3.00;;;;;;;;;;5060401;28;20491;-79
2023/01/15 05:39:34;;;;;;;7.70;2.10;;;;;;;;;;5063260;28;20478;-79
2023/01/15 05:42:01;;;;;;;11.67;4.53;;;;;;;;;;5060528;28;20460;-78
2023/01/15 05:44:28;;;;;;;7.37;2.37;;;;;;;;;;5060771;28;20488;-80
2023/01/15 05:46:56;;;;;;;19.70;3.90;;;;;;;;;;5059111;28;20467;-80
2023/01/15 05:49:25;;;;;;;7.47;3.37;;;;;;;;;;5060836;28;20481;-80
2023/01/15 05:51:53;;;;;;;6.97;2.17;;;;;;;;;;5060934;28;20471;-80
2023/01/15 05:54:21;;;;;;;7.40;2.80;;;;;;;;;;5059744;28;20532;-78
2023/01/15 05:56:47;;;;;;;12.00;2.20;;;;;;;;;;5060646;28;20486;-79
2023/01/15 05:59:14;;;;;;;9.23;2.03;;;;;;;;;;5059898;28;20471;-79
2023/01/15 06:01:41;;;;;;;7.60;2.87;;;;;;;;;;5058977;28;20464;-79
2023/01/15 06:04:07;;;;;;;4.77;2.07;;;;;;;;;;5061019;28;20486;-80
2023/01/15 06:06:34;;;;;;;16.00;2.50;;;;;;;;;;5059565;28;20428;-79
2023/01/15 06:09:02;;;;;;;10.77;2.23;;;;;;;;;;5060944;28;20484;-79
2023/01/15 06:11:29;;;;;;;6.17;1.77;;;;;;;;;;5060644;28;20451;-79
2023/01/15 06:13:56;;;;;;;10.77;1.80;;;;;;;;;;5060806;28;20981;-80
2023/01/15 06:16:22;;;;;;;7.60;2.33;;;;;;;;;;5059327;28;20480;-80
2023/01/15 06:18:49;;;;;;;6.90;3.47;;;;;;;;;;5059994;28;21002;-79
2023/01/15 06:21:15;;;;;;;13.43;3.60;;;;;;;;;;5062186;28;20467;-80
2023/01/15 06:23:42;;;;;;;14.57;4.40;;;;;;;;;;5059080;28;20514;-80
2023/01/15 06:26:11;;;;;;;5.00;2.23;;;;;;;;;;5061250;28;20455;-79
2023/01/15 06:28:37;;;;;;;13.70;2.40;;;;;;;;;;5059794;28;20463;-78
2023/01/15 06:31:05;;;;;;;12.43;2.97;;;;;;;;;;5060797;28;20463;-80
2023/01/15 06:33:31;;;;;;;8.40;2.37;;;;;;;;;;5058100;28;20998;-79
2023/01/15 06:35:57;;;;;;;19.50;2.77;;;;;;;;;;5061148;28;20454;-80
2023/01/15 06:38:24;;;;;;;8.20;2.00;;;;;;;;;;5057557;28;20836;-80
2023/01/15 06:40:50;;;;;;;11.00;2.43;;;;;;;;;;5060566;28;20444;-80
2023/01/15 06:48:46;;;;;;;11.23;2.20;;;;;;;;;;5060315;28;20942;-80
2023/01/15 06:51:14;;;;;;;11.20;2.07;;;;;;;;;;5061186;28;20502;-80
2023/01/15 06:53:40;;;;;;;9.67;2.27;;;;;;;;;;5059578;28;20571;-79
2023/01/15 06:56:07;;;;;;;10.03;2.33;;;;;;;;;;5055096;28;20459;-81
2023/01/15 06:58:35;;;;;;;23.47;2.87;;;;;;;;;;5060092;28;20505;-80
2023/01/15 07:01:06;;;;;;;14.40;4.13;;;;;;;;;;5056703;28;20509;-80
2023/01/15 07:03:32;;;;;;;7.93;2.90;;;;;;;;;;5058676;28;20475;-79
2023/01/15 07:05:59;;;;;;;6.70;2.20;;;;;;;;;;5059299;28;20458;-80
2023/01/15 07:08:25;;;;;;;4.90;1.97;;;;;;;;;;5058720;28;20464;-80
2023/01/15 07:10:51;;;;;;;11.67;2.40;;;;;;;;;;5059393;28;20816;-79
2023/01/15 07:13:20;;;;;;;12.53;2.40;;;;;;;;;;5058980;28;20488;-80
2023/01/15 07:15:48;;;;;;;8.57;3.03;;;;;;;;;;5056342;28;20658;-79
2023/01/15 07:18:14;;;;;;;4.90;1.90;;;;;;;;;;5055658;28;20875;-79
2023/01/15 07:20:42;;;;;;;8.50;2.33;;;;;;;;;;5060529;28;20460;-79
2023/01/15 07:23:08;;;;;;;6.57;2.40;;;;;;;;;;5063229;28;20478;-79
2023/01/15 07:25:34;;;;;;;10.43;2.30;;;;;;;;;;5063982;28;20455;-79
2023/01/15 07:28:03;;;;;;;10.70;2.13;;;;;;;;;;5061525;28;20505;-79
2023/01/15 07:30:29;;;;;;;13.37;2.50;;;;;;;;;;5063621;28;20452;-79
2023/01/15 07:32:57;;;;;;;10.90;2.70;;;;;;;;;;5063400;28;20467;-79
2023/01/15 07:35:24;;;;;;;11.60;1.83;;;;;;;;;;5061367;28;20454;-79
2023/01/15 07:37:51;;;;;;;10.17;2.37;;;;;;;;;;5059852;28;20483;-79
2023/01/15 07:40:18;;;;;;;8.67;1.90;;;;;;;;;;5062078;28;20535;-79
2023/01/15 07:51:12;;;;;;;9.63;2.60;;;;;;;;;;5042399;28;20454;-79
2023/01/15 07:53:40;;;;;;;12.00;3.37;;;;;;;;;;5062489;28;20479;-79
2023/01/15 07:56:07;;;;;;;10.23;2.77;;;;;;;;;;5063294;28;20463;-79
2023/01/15 07:58:34;;;;;;;13.73;2.83;;;;;;;;;;5059420;28;21022;-80
2023/01/15 08:01:02;;;;;;;5.37;2.40;;;;;;;;;;5061988;28;20467;-79
2023/01/15 08:03:30;;;;;;;8.63;2.77;;;;;;;;;;5059727;28;20476;-79
2023/01/15 08:05:57;;;;;;;13.90;2.50;;;;;;;;;;5064409;28;20980;-80
2023/01/15 08:08:23;;;;;;;9.37;2.40;;;;;;;;;;5063032;28;20522;-80
2023/01/15 08:16:17;;;;;;;5.70;1.77;;;;;;;;;;5061570;28;20499;-80
2023/01/15 08:18:45;;;;;;;5.87;2.50;;;;;;;;;;5058655;28;20475;-79
2023/01/15 08:21:15;;;;;;;10.77;1.93;;;;;;;;;;5061398;28;20459;-79
2023/01/15 08:23:42;;;;;;;6.43;2.20;;;;;;;;;;5058335;28;20471;-81
2023/01/15 08:26:08;;;;;;;9.93;1.90;;;;;;;;;;5064464;28;20460;-80
2023/01/15 08:28:35;;;;;;;6.43;2.10;;;;;;;;;;5062733;28;20481;-80
2023/01/15 08:31:01;;;;;;;8.00;1.97;;;;;;;;;;5061602;28;20843;-80
2023/01/15 08:33:28;;;;;;;13.20;2.50;;;;;;;;;;5064066;28;20883;-80
2023/01/15 08:35:57;;;;;;;5.73;1.87;;;;;;;;;;5063350;28;20471;-80
2023/01/15 08:38:24;;;;;;;9.30;1.93;;;;;;;;;;5061820;28;20483;-80
2023/01/15 08:40:58;;;;;;;10.80;3.63;;;;;;;;;;5062595;28;20458;-81
2023/01/15 08:43:25;;;;;;;8.30;1.50;;;;;;;;;;5062237;28;20483;-80
2023/01/15 08:45:51;;;;;;;5.40;1.63;;;;;;;;;;5063133;28;20850;-80
2023/01/15 08:48:18;;;;;;;5.00;1.90;;;;;;;;;;5063264;28;21000;-81
2023/01/15 08:50:44;;;;;;;4.93;1.63;;;;;;;;;;5063661;28;20463;-81
2023/01/15 08:53:12;;;;;;;4.57;1.90;;;;;;;;;;5062064;28;20499;-81
2023/01/15 08:55:38;;;;;;;9.03;1.97;;;;;;;;;;5061499;28;20481;-81
2023/01/15 08:58:04;;;;;;;1.70;1.50;;;;;;;;;;5061251;28;20491;-80
2023/01/15 09:00:31;;;;;;;8.43;1.57;;;;;;;;;;5060371;28;20463;-81
2023/01/15 09:02:57;;;;;;;5.90;1.80;;;;;;;;;;5061862;28;20470;-80
2023/01/15 09:05:23;;;;;;;5.90;2.00;;;;;;;;;;5063206;28;20998;-80
2023/01/15 09:07:51;;;;;;;8.10;2.90;;;;;;;;;;5061279;28;20464;-80
2023/01/15 09:10:19;;;;;;;8.83;2.30;;;;;;;;;;5061811;28;20447;-81
2023/01/15 09:12:45;;;;;;;16.13;2.80;;;;;;;;;;5065726;28;20481;-81
2023/01/15 09:15:12;;;;;;;8.97;2.20;;;;;;;;;;5063222;28;20976;-78
2023/01/15 09:17:39;;;;;;;4.83;2.40;;;;;;;;;;5063992;28;20474;-80
2023/01/15 09:20:07;;;;;;;5.40;2.57;;;;;;;;;;5064491;28;21071;-78
2023/01/15 09:22:35;;;;;;;13.37;2.70;;;;;;;;;;5065433;28;20463;-81
2023/01/15 09:25:02;;;;;;;9.43;3.07;;;;;;;;;;5066993;28;20471;-80
2023/01/15 09:27:29;;;;;;;11.03;2.33;;;;;;;;;;5067134;28;20455;-82
2023/01/15 09:29:56;;;;;;;8.57;2.40;;;;;;;;;;5068509;28;20483;-80
2023/01/15 09:32:22;;;;;;;6.03;2.47;;;;;;;;;;5063509;28;20991;-80
2023/01/15 09:34:49;;;;;;;7.03;1.80;;;;;;;;;;5063515;28;20874;-80
2023/01/15 09:37:15;;;;;;;12.07;2.57;;;;;;;;;;5060783;28;20491;-81
2023/01/15 09:39:42;;;;;;;8.87;2.40;;;;;;;;;;5060113;28;20480;-80
2023/01/15 09:42:17;;;;;;;8.03;1.50;;;;;;;;;;5062945;28;20467;-81
2023/01/15 09:44:51;;;;;;;9.07;2.10;;;;;;;;;;5059303;28;20482;-81
2023/01/15 09:47:20;;;;;;;7.40;2.00;;;;;;;;;;5061156;28;20454;-80
2023/01/15 09:50:05;;;;;;;9.60;2.67;;;;;;;;;;5060365;28;20566;-80
2023/01/15 09:52:39;;;;;;;5.33;2.00;;;;;;;;;;5061206;28;20466;-80
2023/01/15 09:55:09;;;;;;;12.93;2.40;;;;;;;;;;5044307;28;20467;-80
2023/01/15 09:57:36;;;;;;;8.97;2.00;;;;;;;;;;5041983;28;20484;-81
2023/01/15 10:00:06;;;;;;;4.10;2.33;;;;;;;;;;5042025;28;20468;-80
2023/01/15 10:02:36;;;;;;;7.80;2.97;;;;;;;;;;5047557;28;20480;-81
2023/01/15 10:05:04;;;;;;;6.10;2.43;;;;;;;;;;5046711;28;20564;-81
2023/01/15 10:07:36;;;;;;;3.50;1.80;;;;;;;;;;5048960;28;20496;-80
2023/01/15 10:10:05;;;;;;;4.67;1.93;;;;;;;;;;5069063;28;20456;-80
2023/01/15 10:12:35;;;;;;;10.73;1.87;;;;;;;;;;5064052;28;20476;-83
2023/01/15 10:15:06;;;;;;;12.23;3.03;;;;;;;;;;5065886;28;20535;-82
2023/01/15 10:17:40;;;;;;;4.57;1.40;;;;;;;;;;5068676;28;20514;-80
2023/01/15 10:20:12;;;;;;;9.10;1.63;;;;;;;;;;5047667;28;20485;-80
2023/01/15 10:22:46;;;;;;;4.60;1.53;;;;;;;;;;5046710;28;20476;-81
2023/01/15 10:25:17;;;;;;;7.53;2.50;;;;;;;;;;5046160;28;20458;-80
2023/01/15 10:27:46;;;;;;;3.13;1.77;;;;;;;;;;5040959;28;20469;-80
2023/01/15 10:30:15;;;;;;;6.00;1.73;;;;;;;;;;5044231;28;20447;-80
2023/01/15 10:32:46;;;;;;;2.20;1.30;;;;;;;;;;5040817;28;20513;-80
2023/01/15 10:35:41;;;;;;;5.47;2.40;;;;;;;;;;5039832;28;20985;-82
2023/01/15 10:38:14;;;;;;;3.40;1.30;;;;;;;;;;5040082;28;20483;-80
2023/01/15 10:40:56;;;;;;;8.50;3.23;;;;;;;;;;5041894;28;20441;-80
2023/01/15 10:43:26;;;;;;;2.40;1.40;;;;;;;;;;5033044;28;20855;-80
2023/01/15 10:45:55;;;;;;;5.60;3.73;;;;;;;;;;5042517;28;20449;-80
2023/01/15 10:48:26;;;;;;;6.30;2.57;;;;;;;;;;5042850;28;20476;-80
2023/01/15 10:50:52;;;;;;;2.80;2.00;;;;;;;;;;5041148;28;20472;-80
2023/01/15 10:53:24;;;;;;;1.83;1.20;;;;;;;;;;5041974;28;20484;-81
2023/01/15 10:55:53;;;;;;;2.53;1.03;;;;;;;;;;5040786;28;20455;-79
2023/01/15 10:58:25;;;;;;;4.17;2.00;;;;;;;;;;5040640;28;20502;-80
2023/01/15 11:00:56;;;;;;;1.07;0.70;;;;;;;;;;5042026;28;20463;-80
2023/01/15 11:03:29;;;;;;;0.70;0.63;;;;;;;;;;5042533;28;20480;-80
2023/01/15 11:05:56;;;;;;;2.23;1.20;;;;;;;;;;5042770;28;20464;-79
2023/01/15 11:08:28;;;;;;;4.10;1.53;;;;;;;;;;5040421;28;20587;-80
2023/01/15 11:10:56;;;;;;;3.30;1.50;;;;;;;;;;5039984;28;20471;-80
2023/01/15 11:21:46;;;;;;;1.60;1.50;;;;;;;;;;5039941;28;20634;-83
2023/01/15 11:24:14;;;;;;;5.37;3.93;;;;;;;;;;5046556;28;20480;-79
2023/01/15 11:26:41;;;;;;;2.60;1.70;;;;;;;;;;5043000;28;20475;-80
2023/01/15 11:29:12;;;;;;;1.97;1.50;;;;;;;;;;5041694;28;20472;-80
2023/01/15 11:31:40;;;;;;;3.90;1.70;;;;;;;;;;5042477;28;20472;-80
2023/01/15 11:34:15;;;;;;;4.50;2.30;;;;;;;;;;5041116;28;20484;-80
2023/01/15 11:36:42;;;;;;;3.40;1.70;;;;;;;;;;5042832;28;20469;-81
2023/01/15 11:39:21;;;;;;;5.43;2.30;;;;;;;;;;5042675;28;20473;-80
2023/01/15 11:52:59;;;;;;;13.83;4.20;;;;;;;;;;5039496;28;20472;-80
2023/01/15 11:55:27;;;;;;;10.80;4.63;;;;;;;;;;5037900;28;20468;-80
2023/01/15 11:57:55;;;;;;;14.90;5.77;;;;;;;;;;5041456;28;20841;-80
2023/01/15 12:00:23;;;;;;;8.70;5.00;;;;;;;;;;5041040;28;20459;-80
2023/01/15 12:02:53;;;;;;;4.97;2.77;;;;;;;;;;5043624;28;20480;-80
2023/01/15 12:05:21;;;;;;;12.60;4.87;;;;;;;;;;5044796;28;21196;-81
2023/01/15 12:07:48;;;;;;;43.03;23.30;;;;;;;;;;5043013;28;20468;-80
2023/01/15 12:10:20;;;;;;;10.33;2.50;;;;;;;;;;5043447;28;20499;-80
2023/01/15 12:12:58;;;;;;;21.80;12.30;;;;;;;;;;5044405;28;20467;-80
2023/01/15 12:15:36;;;;;;;8.70;3.23;;;;;;;;;;5046950;28;20456;-81
2023/01/15 12:18:20;;;;;;;4.57;2.53;;;;;;;;;;5043540;28;20480;-80
2023/01/15 12:20:54;;;;;;;7.90;3.20;;;;;;;;;;5043072;28;20447;-80
2023/01/15 12:23:36;;;;;;;8.80;3.40;;;;;;;;;;5047150;28;20473;-79
2023/01/15 12:26:04;;;;;;;10.40;3.97;;;;;;;;;;5046447;28;20459;-79
2023/01/15 12:28:33;;;;;;;15.53;4.87;;;;;;;;;;5045692;28;20492;-79
2023/01/15 12:31:02;;;;;;;8.23;3.70;;;;;;;;;;5046080;28;20465;-79
2023/01/15 12:33:35;;;;;;;10.20;3.77;;;;;;;;;;5047480;28;20486;-80
2023/01/15 12:36:06;;;;;;;10.83;3.30;;;;;;;;;;5045751;28;20455;-80
2023/01/15 12:38:40;;;;;;;5.87;2.37;;;;;;;;;;5044244;28;20472;-80
2023/01/15 12:41:09;;;;;;;6.30;3.20;;;;;;;;;;5043263;28;20467;-80
2023/01/15 12:46:22;;;;;;;8.53;3.20;;;;;;;;;;5045787;28;20509;-80
2023/01/15 12:48:53;;;;;;;13.70;3.60;;;;;;;;;;5044706;28;20471;-80
2023/01/15 12:51:27;;;;;;;3.97;1.20;;;;;;;;;;5043427;28;20449;-80
2023/01/15 12:53:56;;;;;;;5.83;2.20;;;;;;;;;;5043821;28;20560;-80
2023/01/15 12:56:24;;;;;;;8.10;2.73;;;;;;;;;;5044672;28;20445;-80
2023/01/15 12:58:53;;;;;;;8.70;1.97;;;;;;;;;;5042718;28;21008;-81
2023/01/15 13:01:22;;;;;;;6.03;3.00;;;;;;;;;;5043231;28;20460;-81
2023/01/15 13:03:53;;;;;;;14.90;3.33;;;;;;;;;;5044041;28;20464;-81
2023/01/15 13:06:22;;;;;;;8.33;2.87;;;;;;;;;;5043744;28;20451;-80
2023/01/15 13:08:54;;;;;;;5.53;2.20;;;;;;;;;;5041476;28;20463;-81
2023/01/15 13:11:20;;;;;;;5.90;2.47;;;;;;;;;;5043548;28;20453;-80
2023/01/15 13:13:56;;;;;;;6.50;2.57;;;;;;;;;;5039711;28;20834;-80
2023/01/15 13:16:28;;;;;;;6.73;3.07;;;;;;;;;;5045481;28;20571;-80
2023/01/15 13:19:01;;;;;;;5.20;2.30;;;;;;;;;;5044018;28;20480;-80
2023/01/15 13:21:29;;;;;;;8.40;2.47;;;;;;;;;;5045895;28;20878;-81
2023/01/15 13:24:02;;;;;;;8.00;3.20;;;;;;;;;;5044531;28;20467;-81
2023/01/15 13:26:40;;;;;;;10.27;4.90;;;;;;;;;;5045881;28;20699;-81
2023/01/15 13:29:15;;;;;;;8.33;4.80;;;;;;;;;;5042815;28;20479;-81
2023/01/15 13:31:58;;;;;;;12.33;2.80;;;;;;;;;;5043949;28;20447;-81
2023/01/15 13:34:30;;;;;;;5.63;2.43;;;;;;;;;;5041085;28;20469;-81
2023/01/15 13:36:59;;;;;;;9.60;2.57;;;;;;;;;;5043811;28;20448;-81
2023/01/15 13:39:32;;;;;;;11.57;3.03;;;;;;;;;;5041579;28;20496;-81
2023/01/15 13:44:46;;;;;;;5.73;3.07;;;;;;;;;;5041200;28;20871;-81
2023/01/15 13:47:13;;;;;;;8.43;3.73;;;;;;;;;;5039821;28;20459;-81
2023/01/15 13:49:41;;;;;;;16.50;3.37;;;;;;;;;;5040988;28;20487;-82
2023/01/15 13:52:20;;;;;;;5.50;2.17;;;;;;;;;;5042996;28;20448;-82
2023/01/15 13:54:48;;;;;;;6.50;2.90;;;;;;;;;;5040484;28;20475;-82
2023/01/15 13:57:22;;;;;;;7.70;2.23;;;;;;;;;;5041604;28;20478;-79
2023/01/15 13:59:49;;;;;;;5.47;2.40;;;;;;;;;;5040628;28;20480;-81
2023/01/15 14:02:26;;;;;;;6.10;3.30;;;;;;;;;;5042908;28;20534;-80
2023/01/15 14:04:52;;;;;;;9.03;2.53;;;;;;;;;;5040805;28;20475;-81
2023/01/15 14:07:19;;;;;;;5.70;2.80;;;;;;;;;;5043254;28;20934;-81
2023/01/15 14:09:45;;;;;;;9.13;2.80;;;;;;;;;;5042466;28;20470;-82
2023/01/15 14:12:23;;;;;;;6.10;1.63;;;;;;;;;;5042032;28;20468;-81
2023/01/15 14:15:00;;;;;;;5.13;2.13;;;;;;;;;;5040737;28;21033;-80
2023/01/15 14:17:34;;;;;;;5.97;1.97;;;;;;;;;;5042007;28;20460;-81
2023/01/15 14:20:10;;;;;;;7.13;2.20;;;;;;;;;;5042370;28;20510;-80
2023/01/15 14:22:46;;;;;;;4.93;3.00;;;;;;;;;;5041399;28;20554;-82
2023/01/15 14:25:28;;;;;;;8.03;3.33;;;;;;;;;;5038449;28;20935;-79
2023/01/15 14:28:02;;;;;;;5.60;2.93;;;;;;;;;;5043109;28;20491;-81
2023/01/15 14:30:48;;;;;;;7.80;2.97;;;;;;;;;;5042364;28;20459;-81
2023/01/15 14:33:20;;;;;;;5.13;3.03;;;;;;;;;;5039565;28;20482;-81
2023/01/15 14:35:48;;;;;;;3.93;2.03;;;;;;;;;;5043012;28;20433;-81
2023/01/15 14:38:16;;;;;;;7.40;2.27;;;;;;;;;;5041139;28;20475;-81
2023/01/15 14:40:52;;;;;;;8.30;2.10;;;;;;;;;;5042907;28;20484;-81
2023/01/15 14:43:21;;;;;;;6.50;2.50;;;;;;;;;;5040600;28;20479;-80
2023/01/15 14:45:51;;;;;;;3.93;2.00;;;;;;;;;;5043736;28;20462;-80
2023/01/15 14:48:19;;;;;;;11.53;2.30;;;;;;;;;;5042501;28;20464;-80
2023/01/15 14:50:45;;;;;;;6.50;2.13;;;;;;;;;;5042105;28;20535;-81
2023/01/15 14:53:25;;;;;;;9.00;3.20;;;;;;;;;;5040157;28;20471;-82
2023/01/15 14:55:56;;;;;;;13.20;4.73;;;;;;;;;;5042701;28;20463;-81
2023/01/15 14:58:37;;;;;;;9.70;4.83;;;;;;;;;;5041539;28;20470;-81
2023/01/15 15:01:14;;;;;;;6.53;2.87;;;;;;;;;;5041472;28;20564;-81
2023/01/15 15:03:45;;;;;;;11.07;3.60;;;;;;;;;;5040680;28;20476;-80
2023/01/15 15:06:13;;;;;;;8.83;2.83;;;;;;;;;;5041530;28;20451;-81
2023/01/15 15:08:41;;;;;;;10.80;4.13;;;;;;;;;;5040413;28;20495;-80
2023/01/15 15:12:17;;;;;;;6.77;3.73;;;;;;;;;;5042375;28;20455;-80
2023/01/15 15:14:00;;;;;;;9.23;3.00;;;;;;;;;;5042485;28;20464;-80
2023/01/15 15:16:29;;;;;;;6.97;2.73;;;;;;;;;;5042019;28;20472;-80
2023/01/15 15:19:00;;;;;;;8.43;2.90;;;;;;;;;;5040046;28;20468;-80
2023/01/15 15:21:28;;;;;;;4.43;2.70;;;;;;;;;;5040431;28;20538;-80
2023/01/15 15:23:57;;;;;;;8.53;2.40;;;;;;;;;;5032496;28;20950;-80
2023/01/15 15:26:25;;;;;;;9.90;2.70;;;;;;;;;;5040765;28;20491;-80
2023/01/15 15:28:56;;;;;;;10.47;3.20;;;;;;;;;;5042826;28;20476;-82
2023/01/15 15:31:25;;;;;;;9.40;2.80;;;;;;;;;;5043273;28;20457;-80
2023/01/15 15:33:53;;;;;;;7.63;2.10;;;;;;;;;;5044566;28;20483;-79
2023/01/15 15:36:20;;;;;;;2.40;0.93;;;;;;;;;;5045831;28;20839;-78
2023/01/15 15:38:52;;;;;;;2.97;1.57;;;;;;;;;;5047632;28;20469;-79
2023/01/15 15:48:40;;;;;;;2.30;1.10;;;;;;;;;;5047734;28;20487;-79
2023/01/15 15:49:42;;;;;;;1.43;0.97;;;;;;;;;;5049471;28;20530;-79